createdAt,value
2022-08-05T00:00:15.930Z,21.25
2022-08-05T00:02:51.070Z,20.94
2022-08-05T00:06:04.886Z,20.68
2022-08-05T00:08:35.038Z,20.47
2022-08-05T00:11:20.739Z,21.11
2022-08-05T00:14:12.052Z,21.50
2022-08-05T00:16:52.337Z,21.37
2022-08-05T00:19:45.588Z,21.08
2022-08-05T00:22:20.591Z,20.76
2022-08-05T00:24:55.154Z,20.47
2022-08-05T00:27:36.595Z,20.22
2022-08-05T00:30:15.404Z,20.72
2022-08-05T00:32:49.939Z,21.18
2022-08-05T00:35:32.987Z,21.13
2022-08-05T00:38:06.348Z,20.84
2022-08-05T00:40:58.273Z,20.52
2022-08-05T00:43:49.943Z,20.18
2022-08-05T00:46:36.900Z,19.90
2022-08-05T00:49:26.336Z,19.71
2022-08-05T00:52:14.221Z,20.42
2022-08-05T00:55:03.317Z,20.81
2022-08-05T00:57:58.490Z,20.71
2022-08-05T01:00:32.662Z,20.41
2022-08-05T01:03:22.182Z,20.12
2022-08-05T01:06:16.592Z,19.79
2022-08-05T01:08:50.262Z,19.56
2022-08-05T01:11:37.659Z,20.04
2022-08-05T01:14:09.230Z,20.56
2022-08-05T01:17:06.017Z,20.53
2022-08-05T01:20:02.240Z,20.24
2022-08-05T01:23:22.946Z,19.92
2022-08-05T01:25:56.052Z,19.54
2022-08-05T01:28:35.010Z,19.30
2022-08-05T01:31:44.856Z,19.79
2022-08-05T01:34:26.765Z,20.36
2022-08-05T01:37:02.345Z,20.29
2022-08-05T01:39:47.560Z,20.02
2022-08-05T01:42:19.746Z,19.72
2022-08-05T01:45:02.215Z,19.45
2022-08-05T01:47:39.254Z,19.23
2022-08-05T01:50:19.326Z,19.78
2022-08-05T01:53:06.247Z,20.30
2022-08-05T01:55:42.480Z,20.26
2022-08-05T01:58:17.749Z,20.03
2022-08-05T02:00:53.278Z,19.76
2022-08-05T02:03:39.054Z,19.49
2022-08-05T02:06:33.346Z,19.25
2022-08-05T02:09:04.373Z,19.85
2022-08-05T02:12:05.251Z,20.29
2022-08-05T02:14:34.547Z,20.17
2022-08-05T02:18:27.457Z,19.88
2022-08-05T02:20:30.408Z,19.51
2022-08-05T02:23:08.945Z,19.20
2022-08-05T02:25:49.154Z,18.94
2022-08-05T02:28:36.454Z,19.45
2022-08-05T02:31:16.753Z,19.96
2022-08-05T02:34:11.923Z,19.96
2022-08-05T02:36:51.098Z,19.69
2022-08-05T02:39:26.665Z,19.33
2022-08-05T02:42:01.359Z,19.04
2022-08-05T02:44:30.783Z,18.83
2022-08-05T02:47:14.303Z,19.29
2022-08-05T02:49:45.430Z,19.88
2022-08-05T02:52:29.887Z,19.89
2022-08-05T02:55:12.356Z,19.65
2022-08-05T02:58:10.619Z,19.40
2022-08-05T03:00:38.432Z,19.14
2022-08-05T03:03:10.138Z,18.94
2022-08-05T03:06:54.852Z,19.44
2022-08-05T03:08:31.833Z,20.01
2022-08-05T03:11:01.275Z,19.98
2022-08-05T03:14:03.053Z,19.72
2022-08-05T03:16:31.773Z,19.44
2022-08-05T03:19:00.996Z,19.20
2022-08-05T03:21:41.321Z,18.98
2022-08-05T03:24:16.534Z,19.50
2022-08-05T03:26:45.741Z,19.98
2022-08-05T03:29:18.094Z,19.98
2022-08-05T03:31:57.417Z,19.78
2022-08-05T03:34:28.249Z,19.51
2022-08-05T03:36:58.422Z,19.27
2022-08-05T03:39:31.586Z,19.07
2022-08-05T03:42:14.361Z,19.59
2022-08-05T03:44:45.807Z,20.07
2022-08-05T03:47:15.094Z,20.08
2022-08-05T03:49:51.515Z,19.89
2022-08-05T03:55:00.117Z,19.65
2022-08-05T03:56:05.498Z,19.38
2022-08-05T03:58:30.485Z,19.22
2022-08-05T04:00:58.446Z,19.86
2022-08-05T04:03:28.834Z,20.42
2022-08-05T04:06:08.645Z,20.47
2022-08-05T04:08:37.034Z,20.31
2022-08-05T04:11:08.708Z,20.10
2022-08-05T04:13:50.389Z,19.89
2022-08-05T04:16:32.830Z,19.74
2022-08-05T04:19:03.576Z,20.36
2022-08-05T04:22:09.956Z,20.94
2022-08-05T04:24:52.707Z,21.01
2022-08-05T04:27:41.801Z,20.86
2022-08-05T04:30:20.424Z,20.68
2022-08-05T04:32:53.537Z,20.56
2022-08-05T04:35:23.956Z,20.47
2022-08-05T04:38:01.696Z,21.06
2022-08-05T04:40:37.187Z,21.75
2022-08-05T04:43:16.344Z,21.87
2022-08-05T04:45:55.038Z,21.78
2022-08-05T04:48:29.181Z,21.60
2022-08-05T04:51:02.513Z,21.44
2022-08-05T04:53:40.937Z,21.31
2022-08-05T04:56:34.655Z,21.28
2022-08-05T04:59:22.372Z,22.09
2022-08-05T05:02:35.232Z,22.80
2022-08-05T05:05:02.174Z,22.90
2022-08-05T05:07:32.833Z,22.78
2022-08-05T05:10:05.541Z,22.70
2022-08-05T05:12:37.167Z,22.64
2022-08-05T05:15:10.769Z,22.56
2022-08-05T05:17:55.909Z,22.54
2022-08-05T05:20:28.385Z,23.25
2022-08-05T05:23:03.110Z,23.88
2022-08-05T05:25:40.568Z,24.05
2022-08-05T05:28:11.924Z,23.99
2022-08-05T05:30:39.659Z,23.87
2022-08-05T05:33:16.517Z,23.73
2022-08-05T05:35:47.334Z,23.63
2022-08-05T05:38:22.482Z,23.63
2022-08-05T05:40:57.681Z,23.67
2022-08-05T05:44:44.399Z,23.82
2022-08-05T05:47:21.733Z,24.46
2022-08-05T05:49:56.956Z,24.73
2022-08-05T05:52:33.228Z,24.81
2022-08-05T05:55:13.534Z,24.84
2022-08-05T05:57:52.210Z,24.83
2022-08-05T06:00:21.567Z,24.79
2022-08-05T06:03:39.645Z,24.82
2022-08-05T06:05:54.121Z,24.84
2022-08-05T06:08:32.284Z,24.94
2022-08-05T06:11:08.705Z,25.85
2022-08-05T06:13:53.730Z,26.70
2022-08-05T06:16:36.804Z,26.97
2022-08-05T06:19:07.896Z,27.06
2022-08-05T06:21:38.441Z,27.14
2022-08-05T06:24:12.011Z,27.18
2022-08-05T06:26:51.813Z,27.21
2022-08-05T06:29:43.180Z,27.21
2022-08-05T06:32:20.842Z,27.27
2022-08-05T06:34:53.438Z,27.36
2022-08-05T06:37:56.869Z,27.48
2022-08-05T06:40:18.204Z,27.54
2022-08-05T06:42:52.320Z,27.56
2022-08-05T06:45:44.672Z,27.67
2022-08-05T06:48:46.891Z,27.87
2022-08-05T06:51:02.871Z,28.05
2022-08-05T06:53:39.253Z,28.18
2022-08-05T06:56:07.406Z,28.35
2022-08-05T06:58:53.822Z,28.52
2022-08-05T07:01:21.330Z,28.67
2022-08-05T07:03:50.206Z,28.84
2022-08-05T07:06:20.686Z,29.06
2022-08-05T07:08:52.015Z,29.21
2022-08-05T07:11:25.356Z,29.37
2022-08-05T07:14:15.466Z,29.47
2022-08-05T07:17:57.033Z,29.61
2022-08-05T07:20:29.866Z,29.83
2022-08-05T07:22:32.414Z,29.93
2022-08-05T07:25:23.028Z,30.10
2022-08-05T07:27:57.770Z,30.31
2022-08-05T07:30:38.679Z,30.49
2022-08-05T07:33:35.200Z,30.65
2022-08-05T07:36:20.061Z,30.74
2022-08-05T07:38:54.666Z,30.84
2022-08-05T07:42:08.595Z,30.96
2022-08-05T07:44:14.139Z,31.17
2022-08-05T07:46:50.323Z,31.33
2022-08-05T07:49:20.935Z,31.46
2022-08-05T07:51:54.523Z,31.62
2022-08-05T07:54:31.430Z,31.67
2022-08-05T07:57:23.649Z,31.62
2022-08-05T07:59:52.563Z,31.59
2022-08-05T08:02:26.312Z,31.73
2022-08-05T08:04:54.214Z,31.85
2022-08-05T08:07:22.871Z,32.00
2022-08-05T08:09:52.505Z,32.25
2022-08-05T08:12:33.409Z,32.42
2022-08-05T08:15:10.873Z,32.46
2022-08-05T08:17:49.663Z,32.71
2022-08-05T08:21:02.838Z,32.96
2022-08-05T08:24:02.441Z,33.14
2022-08-05T08:26:26.513Z,33.31
2022-08-05T08:29:02.041Z,33.48
2022-08-05T08:31:44.639Z,33.59
2022-08-05T08:34:14.549Z,33.74
2022-08-05T08:36:49.140Z,33.99
2022-08-05T08:39:19.917Z,34.28
2022-08-05T08:41:50.668Z,34.40
2022-08-05T08:45:24.434Z,34.57
2022-08-05T08:47:47.149Z,34.76
2022-08-05T08:50:22.346Z,34.86
2022-08-05T08:52:55.861Z,34.98
2022-08-05T08:56:01.688Z,35.21
2022-08-05T08:58:15.826Z,35.37
2022-08-05T09:00:43.526Z,35.47
2022-08-05T09:03:20.223Z,35.55
2022-08-05T09:06:07.510Z,35.65
2022-08-05T09:08:37.235Z,35.87
2022-08-05T09:11:08.254Z,35.81
2022-08-05T09:14:09.610Z,35.59
2022-08-05T09:16:30.885Z,35.60
2022-08-05T09:18:59.479Z,35.67
2022-08-05T09:22:22.227Z,35.66
2022-08-05T09:24:16.470Z,35.42
2022-08-05T09:26:47.525Z,34.90
2022-08-05T09:29:19.266Z,34.32
2022-08-05T09:32:41.513Z,34.08
2022-08-05T09:34:55.275Z,34.29
2022-08-05T09:38:16.564Z,34.58
2022-08-05T09:40:40.988Z,34.87
2022-08-05T09:43:41.606Z,35.11
2022-08-05T09:46:27.804Z,35.17
2022-08-05T09:49:08.214Z,35.26
2022-08-05T09:51:44.404Z,35.14
2022-08-05T09:54:28.823Z,34.85
2022-08-05T09:57:01.382Z,34.84
2022-08-05T09:59:34.864Z,35.10
2022-08-05T10:02:06.784Z,35.30
2022-08-05T10:04:44.482Z,35.52
2022-08-05T10:07:20.310Z,35.55
2022-08-05T10:10:13.781Z,35.45
2022-08-05T10:12:50.466Z,35.45
2022-08-05T10:15:24.152Z,35.54
2022-08-05T10:18:08.049Z,35.32
2022-08-05T10:20:49.141Z,35.41
2022-08-05T10:23:50.861Z,35.72
2022-08-05T10:26:13.816Z,35.96
2022-08-05T10:28:45.083Z,36.10
2022-08-05T10:32:47.846Z,36.21
2022-08-05T10:34:13.152Z,36.37
2022-08-05T10:36:52.913Z,36.42
2022-08-05T10:39:59.137Z,36.49
2022-08-05T10:42:36.790Z,36.57
2022-08-05T10:45:09.661Z,36.52
2022-08-05T10:48:29.165Z,36.34
2022-08-05T10:51:03.434Z,36.28
2022-08-05T10:54:01.024Z,36.31
2022-08-05T10:56:30.690Z,36.40
2022-08-05T11:00:01.200Z,36.49
2022-08-05T11:02:14.412Z,36.53
2022-08-05T11:05:00.430Z,36.47
2022-08-05T11:07:32.813Z,36.50
2022-08-05T11:10:27.519Z,36.57
2022-08-05T11:12:58.804Z,36.72
2022-08-05T11:15:59.210Z,36.77
2022-08-05T11:18:32.586Z,36.78
2022-08-05T11:21:11.645Z,36.76
2022-08-05T11:24:04.886Z,36.66
2022-08-05T11:26:49.392Z,36.60
2022-08-05T11:29:37.750Z,36.53
2022-08-05T11:32:29.548Z,36.05
2022-08-05T11:35:06.057Z,35.51
2022-08-05T11:38:28.305Z,35.48
2022-08-05T11:41:35.145Z,35.54
2022-08-05T11:44:05.766Z,35.66
2022-08-05T11:46:58.377Z,35.79
2022-08-05T11:49:51.255Z,35.91
2022-08-05T11:52:29.351Z,35.87
2022-08-05T11:54:58.574Z,35.81
2022-08-05T11:58:08.085Z,35.80
2022-08-05T12:00:41.322Z,35.93
2022-08-05T12:03:29.412Z,35.96
2022-08-05T12:06:10.142Z,35.89
2022-08-05T12:09:06.764Z,35.79
2022-08-05T12:11:46.976Z,35.58
2022-08-05T12:14:25.756Z,35.44
2022-08-05T12:16:53.138Z,35.21
2022-08-05T12:20:25.769Z,34.97
2022-08-05T12:22:21.860Z,34.83
2022-08-05T12:24:58.411Z,34.65
2022-08-05T12:27:33.481Z,34.52
2022-08-05T12:30:15.559Z,34.55
2022-08-05T12:32:56.373Z,34.75
2022-08-05T12:35:24.692Z,34.82
2022-08-05T12:38:07.301Z,34.88
2022-08-05T12:40:38.534Z,34.95
2022-08-05T12:43:11.855Z,35.01
2022-08-05T12:45:56.204Z,34.97
2022-08-05T12:48:32.600Z,34.90
2022-08-05T12:51:21.629Z,34.93
2022-08-05T12:54:16.721Z,34.94
2022-08-05T12:56:53.341Z,35.01
2022-08-05T12:59:46.801Z,35.10
2022-08-05T13:02:10.028Z,35.07
2022-08-05T13:04:52.240Z,35.00
2022-08-05T13:10:37.436Z,34.52
2022-08-05T13:14:05.024Z,34.32
2022-08-05T13:16:20.770Z,34.36
2022-08-05T13:19:12.482Z,34.34
2022-08-05T13:21:48.260Z,34.25
2022-08-05T13:24:27.732Z,34.15
2022-08-05T13:27:38.416Z,34.05
2022-08-05T13:30:36.053Z,33.94
2022-08-05T13:33:02.120Z,33.78
2022-08-05T13:35:42.505Z,33.74
2022-08-05T13:38:28.051Z,33.75
2022-08-05T13:40:59.853Z,33.75
2022-08-05T13:43:45.512Z,33.80
2022-08-05T13:46:16.285Z,33.89
2022-08-05T13:49:01.039Z,33.87
2022-08-05T13:51:40.005Z,33.76
2022-08-05T13:54:12.291Z,33.65
2022-08-05T13:56:44.981Z,33.58
2022-08-05T13:59:27.101Z,33.48
2022-08-05T14:02:19.785Z,33.42
2022-08-05T14:05:19.635Z,33.45
2022-08-05T14:08:20.038Z,33.37
2022-08-05T14:11:22.565Z,33.40
2022-08-05T14:13:59.322Z,33.37
2022-08-05T14:16:29.271Z,33.19
2022-08-05T14:19:04.540Z,33.09
2022-08-05T14:22:09.403Z,33.04
2022-08-05T14:24:24.390Z,32.93
2022-08-05T14:27:15.739Z,32.79
2022-08-05T14:29:42.377Z,32.74
2022-08-05T14:32:17.099Z,32.71
2022-08-05T14:35:10.768Z,32.69
2022-08-05T14:37:48.157Z,32.72
2022-08-05T14:40:16.924Z,32.80
2022-08-05T14:42:44.540Z,32.81
2022-08-05T14:45:11.930Z,32.74
2022-08-05T14:48:03.361Z,32.65
2022-08-05T14:50:27.372Z,32.57
2022-08-05T14:52:57.656Z,32.45
2022-08-05T14:55:38.421Z,32.35
2022-08-05T14:58:11.407Z,32.27
2022-08-05T15:00:58.476Z,32.20
2022-08-05T15:03:27.829Z,32.12
2022-08-05T15:06:14.956Z,32.02
2022-08-05T15:08:59.260Z,31.90
2022-08-05T15:11:51.885Z,31.85
2022-08-05T15:14:34.470Z,31.73
2022-08-05T15:17:05.273Z,31.67
2022-08-05T15:19:49.030Z,31.63
2022-08-05T15:22:16.824Z,31.56
2022-08-05T15:24:47.367Z,31.50
2022-08-05T15:27:18.634Z,31.49
2022-08-05T15:29:47.292Z,31.51
2022-08-05T15:32:16.798Z,31.53
2022-08-05T15:34:44.094Z,31.62
2022-08-05T15:37:19.395Z,31.60
2022-08-05T15:41:03.535Z,31.54
2022-08-05T15:42:57.656Z,31.50
2022-08-05T15:45:38.268Z,31.44
2022-08-05T15:48:14.346Z,31.42
2022-08-05T15:50:43.882Z,31.33
2022-08-05T15:53:14.034Z,31.23
2022-08-05T15:56:03.010Z,31.23
2022-08-05T15:58:37.074Z,31.34
2022-08-05T16:01:16.059Z,31.37
2022-08-05T16:03:55.082Z,31.37
2022-08-05T16:06:23.661Z,31.39
2022-08-05T16:08:53.557Z,31.48
2022-08-05T16:11:42.414Z,31.50
2022-08-05T16:14:09.831Z,31.44
2022-08-05T16:16:37.519Z,31.40
2022-08-05T16:19:05.398Z,31.41
2022-08-05T16:21:58.856Z,31.34
2022-08-05T16:24:51.970Z,31.27
2022-08-05T16:27:47.363Z,31.14
2022-08-05T16:30:26.661Z,30.99
2022-08-05T16:33:02.799Z,30.90
2022-08-05T16:35:32.303Z,30.81
2022-08-05T16:38:25.218Z,30.81
2022-08-05T16:41:00.238Z,30.80
2022-08-05T16:43:32.294Z,30.76
2022-08-05T16:46:12.957Z,30.73
2022-08-05T16:48:55.659Z,30.70
2022-08-05T16:51:30.741Z,30.63
2022-08-05T16:54:17.423Z,30.50
2022-08-05T16:56:52.283Z,30.37
2022-08-05T16:59:19.835Z,30.30
2022-08-05T17:01:53.576Z,30.17
2022-08-05T17:04:27.957Z,30.06
2022-08-05T17:07:00.915Z,29.98
2022-08-05T17:09:58.327Z,29.88
2022-08-05T17:12:57.754Z,29.74
2022-08-05T17:15:49.033Z,29.59
2022-08-05T17:18:26.530Z,29.41
2022-08-05T17:20:59.464Z,29.25
2022-08-05T17:24:06.032Z,29.12
2022-08-05T17:26:51.132Z,28.97
2022-08-05T17:29:41.023Z,28.81
2022-08-05T17:32:30.569Z,28.62
2022-08-05T17:35:20.669Z,28.46
2022-08-05T17:38:00.605Z,28.33
2022-08-05T17:40:32.688Z,28.18
2022-08-05T17:43:14.466Z,28.03
2022-08-05T17:46:30.174Z,27.84
2022-08-05T17:49:23.803Z,27.66
2022-08-05T17:52:17.357Z,27.48
2022-08-05T17:55:13.791Z,27.32
2022-08-05T17:57:54.230Z,27.18
2022-08-05T18:00:21.628Z,27.06
2022-08-05T18:02:57.175Z,26.94
2022-08-05T18:05:36.235Z,26.82
2022-08-05T18:08:06.734Z,26.68
2022-08-05T18:10:42.695Z,26.51
2022-08-05T18:13:19.479Z,26.37
2022-08-05T18:15:51.782Z,26.24
2022-08-05T18:18:21.986Z,26.11
2022-08-05T18:20:55.045Z,25.99
2022-08-05T18:23:25.173Z,25.86
2022-08-05T18:26:01.151Z,25.76
2022-08-05T18:28:29.492Z,25.66
2022-08-05T18:30:58.419Z,25.56
2022-08-05T18:33:25.640Z,25.48
2022-08-05T18:36:03.482Z,25.39
2022-08-05T18:38:36.149Z,25.29
2022-08-05T18:41:59.638Z,25.18
2022-08-05T18:43:54.910Z,25.10
2022-08-05T18:46:29.212Z,25.72
2022-08-05T18:48:56.608Z,26.37
2022-08-05T18:52:04.190Z,26.46
2022-08-05T18:55:18.612Z,26.18
2022-08-05T18:57:53.323Z,25.85
2022-08-05T19:00:30.637Z,25.58
2022-08-05T19:03:05.179Z,25.33
2022-08-05T19:06:11.728Z,25.07
2022-08-05T19:08:56.879Z,24.87
2022-08-05T19:11:28.369Z,24.70
2022-08-05T19:14:15.274Z,24.56
2022-08-05T19:16:51.946Z,24.43
2022-08-05T19:19:21.027Z,24.33
2022-08-05T19:21:48.514Z,24.84
2022-08-05T19:24:34.806Z,25.43
2022-08-05T19:27:04.158Z,25.51
2022-08-05T19:29:36.191Z,25.31
2022-08-05T19:32:11.574Z,25.05
2022-08-05T19:34:41.953Z,24.81
2022-08-05T19:37:21.732Z,24.58
2022-08-05T19:40:08.179Z,24.36
2022-08-05T19:42:38.878Z,24.19
2022-08-05T19:45:18.066Z,24.02
2022-08-05T19:47:49.117Z,23.88
2022-08-05T19:50:23.044Z,23.78
2022-08-05T19:53:09.307Z,24.34
2022-08-05T19:56:14.354Z,24.95
2022-08-05T19:58:29.619Z,24.97
2022-08-05T20:01:13.490Z,24.74
2022-08-05T20:03:51.999Z,24.40
2022-08-05T20:06:24.153Z,24.11
2022-08-05T20:09:13.624Z,23.86
2022-08-05T20:11:41.737Z,23.65
2022-08-05T20:14:27.102Z,23.47
2022-08-05T20:17:09.988Z,23.35
2022-08-05T20:19:57.662Z,24.04
2022-08-05T20:22:41.908Z,24.58
2022-08-05T20:25:17.382Z,24.56
2022-08-05T20:27:53.020Z,24.32
2022-08-05T20:30:23.188Z,24.05
2022-08-05T20:32:54.166Z,23.79
2022-08-05T20:35:45.581Z,23.55
2022-08-05T20:39:07.167Z,23.33
2022-08-05T20:41:51.412Z,23.18
2022-08-05T20:44:30.385Z,23.85
2022-08-05T20:47:04.588Z,24.28
2022-08-05T20:49:40.167Z,24.22
2022-08-05T20:52:13.556Z,23.97
2022-08-05T20:55:15.760Z,23.70
2022-08-05T20:58:13.580Z,23.42
2022-08-05T21:00:56.867Z,23.16
2022-08-05T21:03:53.249Z,22.94
2022-08-05T21:06:29.698Z,22.80
2022-08-05T21:09:07.443Z,23.39
2022-08-05T21:12:07.685Z,23.94
2022-08-05T21:14:44.012Z,23.88
2022-08-05T21:17:18.849Z,23.64
2022-08-05T21:19:52.425Z,23.37
2022-08-05T21:22:27.485Z,23.11
2022-08-05T21:24:58.319Z,22.86
2022-08-05T21:27:52.680Z,22.65
2022-08-05T21:30:29.089Z,23.16
2022-08-05T21:33:07.257Z,23.60
2022-08-05T21:35:56.085Z,23.54
2022-08-05T21:38:38.669Z,23.28
2022-08-05T21:41:16.582Z,23.00
2022-08-05T21:44:09.104Z,22.71
2022-08-05T21:46:58.310Z,22.46
2022-08-05T21:50:00.199Z,22.28
2022-08-05T21:52:36.736Z,22.96
2022-08-05T21:55:15.132Z,23.40
2022-08-05T21:57:49.986Z,23.35
2022-08-05T22:00:51.374Z,23.11
2022-08-05T22:04:18.053Z,22.82
2022-08-05T22:07:08.551Z,22.51
2022-08-05T22:09:45.446Z,22.30
2022-08-05T22:12:29.664Z,22.16
2022-08-05T22:15:03.272Z,22.78
2022-08-05T22:17:48.683Z,23.31
2022-08-05T22:20:47.235Z,23.28
2022-08-05T22:24:02.128Z,23.02
2022-08-05T22:27:11.013Z,22.63
2022-08-05T22:30:03.295Z,22.33
2022-08-05T22:32:41.288Z,22.13
2022-08-05T22:35:19.092Z,22.67
2022-08-05T22:38:05.060Z,23.15
2022-08-05T22:40:49.463Z,23.10
2022-08-05T22:43:56.016Z,22.80
2022-08-05T22:46:30.512Z,22.50
2022-08-05T22:49:46.261Z,22.25
2022-08-05T22:52:39.506Z,21.93
2022-08-05T22:55:56.551Z,21.76
2022-08-05T22:58:40.091Z,22.59
2022-08-05T23:01:19.327Z,22.93
2022-08-05T23:04:30.752Z,22.78
2022-08-05T23:07:56.076Z,22.42
2022-08-05T23:10:42.945Z,22.05
2022-08-05T23:13:16.095Z,21.80
2022-08-05T23:15:50.276Z,21.59
2022-08-05T23:18:25.804Z,22.07
2022-08-05T23:21:01.950Z,22.60
2022-08-05T23:23:38.288Z,22.59
2022-08-05T23:26:16.311Z,22.31
2022-08-05T23:28:45.715Z,22.00
2022-08-05T23:31:21.065Z,21.73
2022-08-05T23:34:06.759Z,21.48
2022-08-05T23:36:41.427Z,21.29
2022-08-05T23:39:32.039Z,21.88
2022-08-05T23:42:14.338Z,22.43
2022-08-05T23:44:47.859Z,22.37
2022-08-05T23:47:22.570Z,22.15
2022-08-05T23:49:58.227Z,21.93
2022-08-05T23:52:35.933Z,21.66
2022-08-05T23:55:12.367Z,21.42
2022-08-05T23:57:51.232Z,21.23
